Date,TemperatureHighF,TemperatureAvgF,TemperatureLowF,DewpointHighF,DewpointAvgF,DewpointLowF,HumidityHigh,HumidityAvg,HumidityLow,PressureMaxIn,PressureMinIn,WindSpeedMaxMPH,WindSpeedAvgMPH,GustSpeedMaxMPH,PrecipitationSumIn
2013-1-1,48.0,45.1,42.0,48.0,43.0,32.0,100,93,63,0.00,40.00,9,5,14,1.25
2013-1-2,45.0,37.1,35.0,45.0,36.9,35.0,100,99,96,0.00,40.00,10,5,20,0.23
2013-1-3,43.0,35.6,33.0,35.0,30.3,23.0,100,83,51,0.00,40.00,8,5,14,0.00
2013-1-4,45.0,35.5,28.0,25.0,22.9,19.0,84,62,38,0.00,40.00,10,7,19,0.00
2013-1-5,47.0,38.0,30.0,36.0,25.4,21.0,96,62,36,0.00,40.00,9,5,16,0.02
2013-1-6,46.0,39.4,36.0,41.0,36.4,33.0,100,90,66,0.00,40.00,8,4,13,0.07
2013-1-7,52.0,39.5,29.0,33.0,29.1,27.0,93,69,39,0.00,40.00,15,7,22,0.02
2013-1-8,52.0,45.5,40.0,44.0,35.9,29.0,87,69,60,0.00,40.00,15,7,25,0.00
2013-1-9,56.0,51.0,47.0,55.0,49.9,44.0,100,96,86,0.00,40.00,8,4,14,0.11
2013-1-10,62.0,55.1,49.0,59.0,53.4,49.0,100,95,81,0.00,40.00,18,9,30,0.02
2013-1-11,63.0,61.3,59.0,63.0,61.1,58.0,100,99,97,0.00,40.00,22,10,37,0.24
2013-1-12,70.0,64.2,62.0,66.0,62.0,59.0,100,93,77,0.00,40.00,12,7,20,0.19
2013-1-13,66.0,62.3,60.0,63.0,60.5,58.0,100,94,83,0.00,40.00,12,9,20,1.27
2013-1-14,60.0,43.0,37.0,60.0,43.0,37.0,100,100,100,0.00,40.00,12,8,21,3.25
2013-1-15,41.0,39.4,37.0,41.0,39.4,37.0,100,100,100,0.00,40.00,8,5,17,1.59
2013-1-16,48.0,44.5,41.0,48.0,44.5,41.0,100,100,100,0.00,40.00,9,4,15,0.15
2013-1-17,42.0,37.9,33.0,42.0,37.3,30.0,100,98,84,0.00,40.00,16,10,34,0.64
2013-1-18,48.0,37.7,30.0,33.0,29.0,26.0,96,73,46,0.00,40.00,10,6,20,0.14
2013-1-19,51.0,43.0,35.0,31.0,28.1,25.0,77,57,38,0.00,40.00,9,7,15,0.00
2013-1-20,60.0,48.4,40.0,36.0,31.9,27.0,74,54,35,0.00,40.00,8,4,13,0.00
2013-1-21,48.0,42.3,32.0,30.0,23.6,15.0,55,48,32,0.00,40.00,8,5,17,0.00
2013-1-22,39.0,29.6,22.0,16.0,11.4,9.0,63,47,30,0.00,40.00,8,6,20,0.00
2013-1-23,51.0,37.3,28.0,37.0,20.3,12.0,72,50,38,0.00,40.00,8,4,14,0.00
2013-1-24,47.0,39.5,29.0,41.0,23.3,5.0,81,55,30,0.00,40.00,10,7,20,0.00
2013-1-25,34.0,31.6,29.0,34.0,21.9,6.0,100,71,37,0.00,40.00,13,8,24,0.06
2013-1-26,47.0,38.9,31.0,37.0,32.2,29.0,100,80,51,0.00,40.00,7,5,16,0.01
2013-1-27,49.0,40.0,30.0,36.0,32.2,27.0,100,75,58,0.00,40.00,13,8,22,0.00
2013-1-28,53.0,46.3,42.0,47.0,40.2,30.0,98,80,61,0.00,40.00,9,7,17,0.00
2013-1-29,66.0,55.5,47.0,61.0,53.6,46.0,100,94,81,0.00,40.00,14,8,21,0.00
2013-1-30,65.0,56.1,39.0,65.0,55.4,34.0,100,98,83,0.00,40.00,16,11,32,2.11
2013-1-31,47.0,39.7,30.0,34.0,25.7,23.0,83,58,40,0.00,40.00,14,7,25,0.05
2013-2-1,39.0,31.6,25.0,30.0,15.4,3.0,82,53,29,0.00,40.00,10,6,23,0.00
2013-2-2,35.0,29.0,24.0,35.0,21.7,9.0,100,76,47,0.00,40.00,9,5,17,0.04
2013-2-3,52.0,39.1,29.0,40.0,30.3,25.0,100,76,38,0.00,40.00,9,6,17,0.07
2013-2-4,46.0,35.9,28.0,30.0,26.2,23.0,87,69,44,0.00,40.00,7,5,14,0.02
2013-2-5,61.0,48.1,41.0,48.0,38.4,29.0,100,70,52,0.00,40.00,6,5,14,0.00
2013-2-6,63.0,56.7,46.0,48.0,34.0,27.0,95,45,30,0.00,40.00,6,5,12,0.00
2013-2-7,54.0,48.7,44.0,48.0,40.3,26.0,100,77,35,0.00,40.00,10,6,17,0.14
2013-2-8,54.0,44.6,35.0,52.0,41.6,31.0,100,90,57,0.00,40.00,11,6,25,0.18
2013-2-9,57.0,41.6,31.0,31.0,28.7,25.0,91,65,30,0.00,40.00,9,6,22,0.01
2013-2-10,52.0,48.7,46.0,50.0,37.5,28.0,100,69,42,0.00,40.00,18,14,31,0.95
2013-2-11,54.0,51.0,46.0,54.0,47.9,32.0,100,91,51,0.00,40.00,10,5,19,0.54
2013-2-12,47.0,43.8,41.0,41.0,32.7,28.0,96,66,47,0.00,40.00,9,6,18,0.20
2013-2-13,45.0,41.5,37.0,45.0,40.7,35.0,100,97,87,0.00,40.00,11,6,17,0.25
2013-2-14,55.0,44.0,36.0,36.0,33.9,31.0,94,70,44,0.00,40.00,6,4,12,0.01
2013-2-15,59.0,48.7,40.0,41.0,35.5,29.0,81,61,43,0.00,40.00,10,6,16,0.00
2013-2-16,40.0,33.1,26.0,29.0,20.6,11.0,83,62,37,0.00,40.00,11,7,22,0.00
2013-2-17,44.0,32.5,22.0,18.0,11.8,9.0,70,44,26,0.00,40.00,7,5,14,0.00
2013-2-18,56.0,45.0,33.0,29.0,22.4,14.0,49,41,32,0.00,40.00,16,9,34,0.00
2013-2-19,54.0,43.5,37.0,49.0,27.3,14.0,100,60,25,0.00,40.00,16,9,34,0.28
2013-2-20,42.0,35.8,29.0,20.0,14.5,11.0,60,42,30,0.00,40.00,9,6,16,0.01
2013-2-21,56.0,40.0,27.0,43.0,21.5,15.0,100,52,20,0.00,40.00,12,7,17,0.53
2013-2-22,43.0,42.1,41.0,43.0,41.9,41.0,100,99,96,0.00,40.00,19,10,33,1.11
2013-2-23,55.0,46.3,41.0,50.0,45.4,41.0,100,97,82,0.00,40.00,6,3,20,0.46
2013-2-24,57.0,46.5,37.0,43.0,32.1,24.0,94,62,30,0.00,40.00,9,6,19,0.04
2013-2-25,53.0,43.8,37.0,40.0,30.4,24.0,89,59,45,0.00,40.00,18,9,32,0.00
2013-2-26,44.0,40.5,38.0,42.0,39.1,36.0,100,95,80,0.00,40.00,23,12,41,0.73
2013-2-27,56.0,43.7,37.0,37.0,34.3,31.0,98,72,42,0.00,40.00,10,6,22,0.01
2013-2-28,40.0,36.4,33.0,32.0,28.0,25.0,78,71,65,0.00,40.00,10,6,19,0.00
2013-3-1,38.0,34.4,31.0,31.0,28.7,25.0,100,80,69,0.00,40.00,6,4,11,0.00
2013-3-2,36.0,31.8,29.0,31.0,28.6,25.0,100,88,70,0.00,40.00,8,6,17,0.03
2013-3-3,39.0,31.0,27.0,27.0,20.1,16.0,92,65,42,0.00,40.00,8,6,17,0.02
2013-3-4,52.0,40.4,29.0,29.0,20.6,16.0,60,46,27,0.00,40.00,11,5,21,0.00
2013-3-5,58.0,48.8,36.0,55.0,42.2,28.0,100,80,43,0.00,40.00,14,9,33,0.27
2013-3-6,41.0,33.6,30.0,29.0,25.1,21.0,89,71,58,0.00,40.00,12,9,26,0.21
2013-3-7,48.0,37.3,30.0,31.0,28.3,26.0,88,71,49,0.00,40.00,8,6,19,0.00
2013-3-8,56.0,40.6,28.0,31.0,24.2,14.0,94,61,19,0.00,40.00,10,7,19,0.00
2013-3-9,57.0,48.9,38.0,30.0,26.9,22.0,64,43,33,0.00,40.00,12,8,21,0.00
2013-3-10,66.0,59.1,53.0,37.0,31.3,27.0,46,36,23,0.00,40.00,20,14,32,0.00
2013-3-11,60.0,53.5,41.0,54.0,48.8,37.0,100,86,43,0.00,40.00,18,11,31,1.02
2013-3-12,56.0,43.2,35.0,41.0,32.8,27.0,100,71,36,0.00,40.00,8,7,17,0.16
2013-3-13,49.0,42.6,33.0,30.0,23.9,18.0,61,48,33,0.00,40.00,12,8,21,0.00
2013-3-14,53.0,36.5,25.0,34.0,18.6,12.0,88,53,20,0.00,40.00,9,6,19,0.02
2013-3-15,74.0,52.1,36.0,42.0,37.2,32.0,94,62,30,0.00,40.00,9,6,20,0.02
2013-3-16,76.0,63.6,53.0,48.0,42.8,41.0,66,49,30,0.00,40.00,10,7,20,0.00
2013-3-17,69.0,61.3,54.0,56.0,48.0,42.0,83,63,49,0.00,40.00,9,6,17,0.00
2013-3-18,59.0,54.7,51.0,56.0,53.2,49.0,100,95,69,0.00,40.00,13,8,21,1.14
2013-3-19,60.0,50.2,40.0,51.0,33.1,15.0,100,59,27,0.00,40.00,10,6,19,0.84
2013-3-20,57.0,46.0,40.0,28.0,15.9,11.0,62,30,20,0.00,40.00,10,7,20,0.00
2013-3-21,45.0,34.8,24.0,29.0,15.1,9.0,78,48,25,0.00,40.00,9,6,16,0.00
2013-3-22,46.0,38.0,31.0,31.0,19.8,12.0,65,48,36,0.00,40.00,8,4,13,0.00
2013-3-23,49.0,43.2,38.0,48.0,41.0,31.0,100,93,62,0.00,40.00,8,5,17,0.03
2013-3-24,52.0,48.6,39.0,52.0,47.2,32.0,100,95,77,0.00,40.00,13,8,26,2.08
2013-3-25,39.0,33.7,30.0,32.0,25.2,23.0,83,71,64,0.00,40.00,13,10,24,0.08
2013-3-26,39.0,32.5,29.0,29.0,25.8,24.0,94,77,63,0.00,40.00,9,7,17,0.00
2013-3-27,52.0,37.2,29.0,28.0,24.7,23.0,84,64,32,0.00,40.00,8,6,16,0.00
2013-3-28,59.0,55.1,50.0,29.0,27.8,26.0,43,35,31,0.00,40.00,8,6,15,0.00
2013-3-29,56.0,49.6,45.0,38.0,30.5,25.0,76,48,41,0.00,40.00,7,4,11,0.00
2013-3-30,67.0,51.9,42.0,55.0,45.4,38.0,100,82,41,0.00,40.00,9,5,19,0.29
2013-3-31,62.0,56.3,52.0,60.0,53.3,-99.9,100,96,77,0.00,40.00,6,5,16,0.63
2013-4-1,69.0,58.0,49.0,57.0,45.7,35.0,100,68,34,0.00,40.00,10,6,19,0.02
2013-4-2,56.0,48.2,39.0,36.0,26.6,19.0,72,45,27,0.00,40.00,8,6,16,0.00
2013-4-3,55.0,47.8,41.0,41.0,24.4,19.0,91,41,31,0.00,40.00,9,6,19,0.10
2013-4-4,44.0,41.3,39.0,43.0,41.0,39.0,100,99,91,0.00,40.00,14,6,29,0.70
2013-4-5,64.0,51.1,40.0,46.0,39.1,32.0,100,70,35,0.00,40.00,10,6,21,0.04
2013-4-6,69.0,60.5,52.0,40.0,34.7,31.0,45,38,28,0.00,40.00,10,8,17,0.00
2013-4-7,74.0,62.8,52.0,47.0,42.9,35.0,68,49,34,0.00,40.00,12,7,22,0.00
2013-4-8,73.0,66.3,59.0,55.0,50.9,46.0,77,59,45,0.00,40.00,10,7,19,0.00
2013-4-9,78.0,69.6,61.0,58.0,53.6,51.0,75,58,41,0.00,40.00,12,7,21,0.00
2013-4-10,82.0,73.2,64.0,58.0,54.8,52.0,72,54,41,0.00,40.00,10,7,19,0.00
2013-4-11,75.0,67.2,61.0,64.0,58.7,53.0,100,75,52,0.00,40.00,15,9,28,1.79
2013-4-12,66.0,57.7,48.0,61.0,46.6,36.0,100,72,34,0.00,40.00,11,6,23,1.91
2013-4-13,73.0,60.3,50.0,41.0,37.1,30.0,69,46,20,0.00,40.00,7,6,16,0.00
2013-4-14,62.0,57.4,53.0,53.0,41.4,32.0,100,60,34,0.00,40.00,13,7,23,0.05
2013-4-15,74.0,62.1,54.0,59.0,55.8,53.0,100,83,51,0.00,40.00,10,6,16,0.03
2013-4-16,78.0,68.2,61.0,66.0,61.2,57.0,94,79,61,0.00,40.00,10,8,19,0.00
2013-4-17,83.0,71.4,65.0,66.0,62.8,59.0,94,76,51,0.00,40.00,10,6,20,0.00
2013-4-18,77.0,69.0,60.0,62.0,58.4,53.0,100,72,44,0.00,40.00,14,10,26,0.00
2013-4-19,71.0,56.4,42.0,63.0,51.3,36.0,100,84,62,0.00,40.00,17,8,32,1.39
2013-4-20,62.0,48.4,37.0,37.0,31.0,27.0,82,55,27,0.00,40.00,9,6,17,0.09
2013-4-21,67.0,55.3,44.0,37.0,32.2,27.0,58,42,29,0.00,40.00,9,7,20,0.00
2013-4-22,69.0,58.9,49.0,45.0,41.0,36.0,69,52,37,0.00,40.00,10,7,17,0.00
2013-4-23,72.0,61.0,51.0,47.0,41.1,30.0,62,48,39,0.00,40.00,11,8,24,0.00
2013-4-24,67.0,58.4,46.0,62.0,52.9,46.0,100,83,55,0.00,40.00,11,7,19,0.20
2013-4-25,67.0,52.4,38.0,46.0,36.2,26.0,100,61,28,0.00,40.00,8,6,19,0.10
2013-4-26,71.0,59.9,50.0,43.0,34.3,27.0,52,39,27,0.00,40.00,10,6,20,0.00
2013-4-27,63.0,54.6,51.0,55.0,52.3,39.0,100,92,50,0.00,40.00,16,8,30,0.40
2013-4-28,57.0,55.3,54.0,57.0,53.6,-99.9,100,100,96,0.00,40.00,14,8,25,2.70
2013-4-29,71.0,59.7,54.0,63.0,55.7,54.0,100,89,57,0.00,40.00,7,4,12,0.20
2013-4-30,76.0,71.2,61.0,62.0,54.5,50.0,78,57,44,0.00,40.00,7,6,12,0.00
2013-5-1,70.0,64.2,59.0,60.0,56.9,53.0,99,78,63,0.00,40.00,12,8,20,0.00
2013-5-2,69.0,62.0,56.0,59.0,56.0,52.0,90,81,66,0.00,40.00,13,9,26,0.00
2013-5-3,62.0,59.3,58.0,56.0,55.2,54.0,93,87,78,0.00,40.00,17,11,35,0.00
2013-5-4,59.0,52.0,49.0,55.0,51.0,49.0,100,97,83,0.00,40.00,17,8,30,2.15
2013-5-5,63.0,49.3,45.0,54.0,47.6,43.0,100,95,54,0.00,40.00,8,4,16,1.55
2013-5-6,51.0,47.6,44.0,50.0,47.2,44.0,100,99,91,0.00,40.00,7,4,15,0.29
2013-5-7,69.0,55.9,47.0,54.0,50.4,47.0,100,84,50,0.00,40.00,6,4,12,0.09
2013-5-8,76.0,63.0,51.0,60.0,55.6,51.0,100,79,55,0.00,40.00,5,3,10,0.01
2013-5-9,80.0,69.3,60.0,62.0,57.8,54.0,90,69,42,0.00,40.00,5,3,11,0.00
2013-5-10,71.0,66.7,63.0,61.0,55.5,-99.9,86,71,61,0.00,40.00,7,6,15,0.00
2013-5-11,74.0,63.6,58.0,65.0,61.1,58.0,100,92,65,0.00,40.00,8,4,14,0.38
2013-5-12,68.0,56.8,50.0,55.0,40.5,-99.9,100,62,32,0.00,40.00,9,5,16,0.13
2013-5-13,69.0,56.1,47.0,39.0,34.2,31.0,60,45,28,0.00,40.00,8,5,14,0.00
2013-5-14,76.0,64.2,55.0,55.0,43.7,31.0,63,47,37,0.00,40.00,8,5,16,0.00
2013-5-15,87.0,73.7,63.0,59.0,55.3,53.0,71,54,36,0.00,40.00,7,4,12,0.00
2013-5-16,80.0,61.1,65.0,64.0,25.2,-99.9,75,60,47,0.00,40.00,7,4,14,0.00
2013-5-17,77.0,67.9,63.0,65.0,48.8,-99.9,99,73,54,0.00,40.00,9,5,15,0.08
2013-5-18,73.0,66.7,63.0,71.0,66.0,63.0,100,98,90,0.00,40.00,11,6,16,0.81
2013-5-19,69.0,64.1,60.0,69.0,64.1,60.0,100,100,100,0.00,40.00,13,6,18,3.17
2013-5-20,81.0,69.1,60.0,71.0,65.0,60.0,100,88,62,0.00,40.00,7,4,12,0.48
2013-5-21,86.0,76.8,68.0,72.0,67.9,66.0,97,75,54,0.00,40.00,9,4,16,0.01
2013-5-22,83.0,73.2,67.0,70.0,66.6,64.0,100,81,55,0.00,40.00,10,6,17,0.00
2013-5-23,82.0,71.7,62.0,67.0,61.5,55.0,100,73,47,0.00,40.00,5,3,14,0.00
2013-5-24,71.0,63.8,56.0,56.0,49.4,40.0,93,62,35,0.00,40.00,8,5,19,0.00
2013-5-25,78.0,64.9,53.0,49.0,43.1,39.0,68,47,28,0.00,40.00,6,4,13,0.00
2013-5-26,81.0,70.2,58.0,54.0,49.3,43.0,67,48,34,0.00,40.00,6,3,10,0.00
2013-5-27,82.0,73.2,65.0,61.0,55.0,46.0,64,53,43,0.00,40.00,7,4,14,0.00
2013-5-28,81.0,73.0,65.0,63.0,58.8,53.0,82,62,45,0.00,40.00,8,6,14,0.00
2013-5-29,80.0,72.8,65.0,65.0,59.7,53.0,80,64,47,0.00,40.00,11,8,16,0.00
2013-5-30,77.0,71.7,67.0,66.0,62.8,60.0,88,74,62,0.00,40.00,10,9,17,0.00
2013-5-31,80.0,73.2,66.0,66.0,63.1,60.0,89,72,52,0.00,40.00,11,8,19,0.00
2013-6-1,80.0,72.7,69.0,71.0,65.5,60.0,97,79,65,0.00,40.00,10,7,25,0.45
2013-6-2,81.0,72.9,68.0,72.0,66.4,-99.9,100,86,65,0.00,40.00,8,4,13,0.33
2013-6-3,83.0,73.3,65.0,68.0,64.1,58.0,96,75,51,0.00,40.00,5,3,11,0.01
2013-6-4,84.0,72.9,62.0,64.0,59.3,55.0,84,64,47,0.00,40.00,7,4,12,0.00
2013-6-5,78.0,70.7,65.0,72.0,64.9,58.0,99,83,59,0.00,40.00,10,6,25,0.87
2013-6-6,79.0,70.9,65.0,68.0,66.0,65.0,99,86,69,0.00,40.00,8,5,15,0.01
2013-6-7,80.0,70.8,66.0,69.0,67.5,66.0,99,90,69,0.00,40.00,5,3,9,0.28
2013-6-8,79.0,70.1,64.0,69.0,65.1,61.0,100,85,64,0.00,40.00,5,3,10,0.08
2013-6-9,77.0,70.4,68.0,71.0,66.7,62.0,99,88,70,0.00,40.00,9,5,15,1.00
2013-6-10,80.0,72.5,66.0,69.0,66.2,62.0,99,83,59,0.00,40.00,8,6,16,0.22
2013-6-11,90.0,78.4,69.0,74.0,69.2,64.0,97,75,55,0.00,40.00,6,3,13,0.10
2013-6-12,90.0,81.0,73.0,75.0,71.2,67.0,89,73,54,0.00,40.00,4,3,10,0.00
2013-6-13,88.0,78.0,71.0,74.0,70.1,65.0,96,78,61,0.00,40.00,8,5,17,0.20
2013-6-14,81.0,72.4,64.0,65.0,59.0,53.0,85,65,47,0.00,40.00,8,5,17,0.20
2013-6-15,82.0,75.6,67.0,63.0,58.8,53.0,65,56,49,0.00,40.00,8,6,14,0.00
2013-6-16,83.0,74.9,67.0,70.0,64.1,58.0,97,70,56,0.00,40.00,6,5,12,0.51
2013-6-17,77.0,69.5,66.0,73.0,67.7,65.0,99,95,83,0.00,40.00,6,4,10,0.56
2013-6-18,77.0,70.2,66.0,73.0,68.3,64.0,99,94,82,0.00,40.00,8,4,17,0.72
2013-6-19,82.0,73.0,64.0,67.0,62.8,57.0,95,73,49,0.00,40.00,7,4,12,0.01
2013-6-20,81.0,74.0,69.0,67.0,64.5,57.0,87,73,56,0.00,40.00,8,5,15,0.00
2013-6-22,83.0,79.3,75.0,65.0,62.4,61.0,70,57,50,0.00,40.00,7,4,12,0.00
2013-6-23,80.0,74.6,68.0,68.0,65.1,59.0,86,73,60,0.00,40.00,7,5,13,0.00
2013-6-24,82.0,73.6,68.0,78.0,69.9,66.0,100,89,62,0.00,40.00,5,4,13,0.00
2013-6-25,81.0,72.3,68.0,81.0,72.3,68.0,100,100,100,0.00,40.00,6,4,11,0.01
2013-6-26,83.0,75.5,71.0,83.0,75.5,71.0,100,100,100,0.00,40.00,8,4,14,0.06
2013-6-27,81.0,74.8,71.0,81.0,74.8,71.0,100,100,100,0.00,40.00,7,4,15,0.03
2013-6-28,81.0,73.7,68.0,81.0,73.7,68.0,100,100,100,0.00,40.00,4,3,19,0.17
2013-6-29,76.0,70.0,67.0,76.0,70.0,67.0,100,100,100,0.00,40.00,4,3,9,0.18
2013-6-30,73.0,70.5,68.0,73.0,70.5,68.0,100,100,100,0.00,40.00,4,3,8,0.01
2013-7-1,77.0,69.5,65.0,77.0,69.5,65.0,100,100,100,0.00,40.00,8,5,13,0.25
2013-7-2,77.0,69.3,65.0,77.0,69.3,65.0,100,100,100,0.00,40.00,6,4,13,1.22
2013-7-3,73.0,68.6,65.0,73.0,68.6,65.0,100,100,100,0.00,40.00,9,6,15,0.20
2013-7-4,72.0,67.6,65.0,72.0,67.6,65.0,100,100,100,0.00,40.00,13,9,21,1.00
2013-7-5,71.0,68.5,67.0,71.0,68.5,67.0,100,100,100,0.00,40.00,11,8,18,0.90
2013-7-6,71.0,68.4,67.0,71.0,68.4,67.0,100,100,100,0.00,40.00,10,6,17,2.06
2013-7-7,79.0,71.0,67.0,79.0,71.0,67.0,100,100,100,0.00,40.00,9,5,18,1.00
2013-7-8,83.0,72.8,69.0,83.0,72.8,69.0,100,100,100,0.00,40.00,5,3,10,0.25
2013-7-9,86.0,74.9,71.0,86.0,74.9,71.0,100,100,100,0.00,40.00,5,3,9,0.02
2013-7-10,81.0,73.0,67.0,81.0,69.9,-99.9,100,97,100,0.00,40.00,7,4,20,0.52
2013-7-11,81.0,70.3,67.0,81.0,70.3,67.0,100,100,100,0.00,40.00,5,3,9,0.74
2013-7-12,78.0,71.7,69.0,78.0,71.7,69.0,100,100,100,0.00,40.00,7,5,15,0.05
2013-7-13,77.0,71.5,67.0,77.0,71.5,67.0,100,100,100,0.00,40.00,11,6,17,0.00
2013-7-14,79.0,73.5,69.0,79.0,73.5,69.0,100,100,100,0.00,40.00,10,7,20,0.04
2013-7-15,83.0,74.2,69.0,78.0,71.0,69.0,100,91,64,0.00,40.00,12,9,22,0.04
2013-7-16,88.0,83.9,75.0,72.0,70.0,67.0,82,64,54,0.00,40.00,6,3,12,0.00
2013-7-17,91.0,81.2,74.0,75.0,71.1,66.0,91,72,56,0.00,40.00,7,3,16,0.02
2013-7-18,87.0,79.2,68.0,73.0,69.7,68.0,99,74,55,0.00,40.00,8,4,22,0.06
2013-7-19,91.0,80.5,72.0,75.0,71.2,67.0,93,75,55,0.00,40.00,5,4,10,0.00
2013-7-20,89.0,77.7,70.0,77.0,69.4,-99.9,99,79,59,0.00,40.00,6,4,12,0.02
2013-7-21,83.0,74.2,70.0,74.0,71.1,67.0,100,91,69,0.00,40.00,7,4,12,0.46
2013-7-22,83.0,73.6,67.0,76.0,70.3,67.0,100,90,67,0.00,40.00,7,4,14,0.04
2013-7-23,80.0,72.6,69.0,73.0,70.0,68.0,99,92,76,0.00,40.00,9,4,19,0.01
2013-7-24,85.0,74.6,68.0,75.0,70.4,68.0,100,88,69,0.00,40.00,4,2,12,0.01
2013-7-25,85.0,75.7,66.0,70.0,65.6,60.0,94,73,50,0.00,40.00,8,5,14,0.00
2013-7-26,86.0,75.2,66.0,72.0,65.6,60.0,85,73,56,0.00,40.00,7,4,13,0.00
2013-7-27,81.0,74.5,69.0,72.0,69.2,65.0,99,84,68,0.00,40.00,7,4,14,0.00
2013-7-28,83.0,74.7,68.0,72.0,67.0,63.0,91,78,59,0.00,40.00,4,3,9,0.00
2013-7-29,80.0,70.7,64.0,63.0,58.1,53.0,82,65,50,0.00,40.00,7,4,13,0.00
2013-7-30,86.0,78.0,63.0,68.0,63.3,54.0,87,62,46,0.00,40.00,5,4,8,0.00
2013-7-31,76.0,70.4,66.0,71.0,67.8,62.0,100,92,62,0.00,40.00,7,5,11,0.96
2013-8-1,85.0,75.4,69.0,73.0,69.4,66.0,100,84,62,0.00,40.00,6,4,13,0.02
2013-8-2,87.0,76.6,68.0,69.0,65.9,63.0,86,71,49,0.00,40.00,7,4,15,0.01
2013-8-3,85.0,79.3,74.0,74.0,71.0,68.0,89,76,68,0.00,40.00,4,2,7,0.00
2013-8-4,85.0,76.8,70.0,73.0,69.4,61.0,97,79,60,0.00,40.00,7,4,15,0.00
2013-8-5,86.0,75.8,65.0,68.0,62.7,58.0,83,65,43,0.00,40.00,7,4,14,0.00
2013-8-6,83.0,75.1,69.0,75.0,67.4,62.0,97,78,65,0.00,40.00,7,3,16,0.37
2013-8-7,80.0,72.6,70.0,77.0,71.1,69.0,100,96,87,0.00,40.00,8,5,14,0.72
2013-8-8,84.0,74.2,70.0,76.0,71.5,68.0,100,92,73,0.00,40.00,8,5,17,0.32
2013-8-9,87.0,77.4,72.0,76.0,73.1,69.0,100,88,65,0.00,40.00,6,5,14,0.32
2013-8-10,85.0,76.8,71.0,76.0,73.0,68.0,96,88,71,0.00,40.00,8,4,16,1.50
2013-8-11,83.0,75.0,71.0,75.0,71.9,69.0,100,91,73,0.00,40.00,5,4,9,0.43
2013-8-12,84.0,76.4,72.0,79.0,72.8,70.0,100,89,70,0.00,40.00,6,3,10,0.78
2013-8-13,87.0,75.2,70.0,76.0,69.4,-99.9,100,86,63,0.00,40.00,6,4,13,0.64
2013-8-14,78.0,71.4,67.0,68.0,64.4,57.0,96,79,59,0.00,40.00,7,5,16,0.07
2013-8-15,74.0,62.4,62.0,64.0,47.8,-99.9,87,71,61,0.00,40.00,10,5,17,0.00
2013-8-16,68.0,63.0,62.0,63.0,55.0,-99.9,93,82,76,0.00,40.00,8,5,14,0.00
2013-8-17,67.0,64.4,63.0,64.0,61.4,59.0,100,90,81,0.00,40.00,7,5,14,0.02
2013-8-18,72.0,66.5,63.0,70.0,63.8,-99.9,100,94,85,0.00,40.00,8,6,14,0.40
2013-8-19,80.0,66.8,66.0,72.0,59.1,-99.9,100,91,71,0.00,40.00,9,4,16,1.01
2013-8-20,80.0,71.9,68.0,72.0,67.1,-99.9,98,89,73,0.00,40.00,8,6,14,0.03
2013-8-21,82.0,73.9,71.0,74.0,71.1,70.0,99,91,76,0.00,40.00,9,5,13,0.00
2013-8-22,82.0,75.2,70.0,73.0,71.5,70.0,100,89,70,0.00,40.00,5,3,9,0.01
2013-8-23,87.0,77.6,70.0,73.0,69.8,66.0,98,79,56,0.00,40.00,6,3,12,0.01
2013-8-24,83.0,74.2,67.0,70.0,67.5,65.0,99,81,62,0.00,40.00,9,6,16,0.00
2013-8-25,82.0,72.8,67.0,67.0,59.5,-99.9,84,66,52,0.00,40.00,9,6,16,0.00
2013-8-26,81.0,73.6,66.0,64.0,60.3,57.0,77,63,53,0.00,40.00,7,3,12,0.00
2013-8-27,85.0,82.0,78.0,68.0,66.0,64.0,63,59,54,0.00,40.00,5,4,13,0.00
2013-8-28,87.0,82.5,76.0,73.0,70.9,68.0,83,69,59,0.00,40.00,4,2,10,0.00
2013-8-29,91.0,79.2,73.0,77.0,71.2,68.0,88,77,59,0.00,40.00,5,3,9,0.04
2013-8-30,84.0,76.5,71.0,76.0,71.0,67.0,97,84,71,0.00,40.00,7,4,14,0.73
2013-8-31,88.0,78.0,71.0,77.0,72.2,67.0,99,84,62,0.00,40.00,8,4,12,0.83
2013-9-1,84.0,73.6,70.0,77.0,69.3,-99.9,99,90,78,0.00,40.00,8,4,13,1.48
2013-9-2,84.0,74.4,69.0,74.0,71.4,68.0,100,91,68,0.00,40.00,6,3,10,0.10
2013-9-3,89.0,77.9,70.0,74.0,69.8,64.0,100,78,52,0.00,40.00,7,3,12,0.05
2013-9-4,86.0,76.0,65.0,67.0,63.6,59.0,90,67,46,0.00,40.00,7,4,15,0.05
2013-9-5,85.0,74.3,65.0,68.0,64.2,60.0,89,72,57,0.00,40.00,7,4,12,0.00
2013-9-6,85.0,75.7,65.0,69.0,64.3,58.0,89,68,55,0.00,40.00,7,4,13,0.00
2013-9-7,86.0,79.0,69.0,70.0,66.6,64.0,88,66,54,0.00,40.00,6,4,11,0.00
2013-9-8,88.0,78.6,72.0,73.0,64.9,-99.9,79,66,57,0.00,40.00,4,3,10,0.00
2013-9-9,86.0,79.7,73.0,71.0,69.1,68.0,86,71,55,0.00,40.00,7,4,12,0.00
2013-9-10,85.0,78.3,71.0,72.0,68.0,65.0,81,71,58,0.00,40.00,7,6,12,0.00
2013-9-11,88.0,82.0,74.0,69.0,67.0,66.0,80,62,50,0.00,40.00,5,3,9,0.00
2013-9-12,89.0,82.0,71.0,71.0,68.4,65.0,94,65,50,0.00,40.00,4,3,10,0.10
2013-9-13,82.0,72.1,63.0,69.0,61.9,50.0,98,73,48,0.00,40.00,8,5,15,0.11
2013-9-14,77.0,65.1,53.0,57.0,52.6,48.0,85,65,46,0.00,40.00,9,5,18,0.01
2013-9-15,81.0,70.9,63.0,64.0,55.9,-99.9,84,64,54,0.00,40.00,8,5,15,0.00
2013-9-16,84.0,77.9,70.0,64.0,58.4,55.0,71,52,39,0.00,40.00,4,3,11,0.00
2013-9-17,76.0,69.5,62.0,64.0,61.1,57.0,93,75,62,0.00,40.00,13,6,21,0.00
2013-9-18,67.0,64.7,64.0,57.0,55.7,54.0,76,73,70,0.00,40.00,10,8,21,0.00
2013-9-19,81.0,71.3,63.0,64.0,61.0,57.0,85,71,53,0.00,40.00,9,4,15,0.00
2013-9-20,84.0,77.1,67.0,64.0,62.6,60.0,83,62,47,0.00,40.00,8,6,13,0.00
2013-9-21,74.0,66.9,60.0,69.0,64.4,57.0,99,92,72,0.00,40.00,8,6,20,2.96
2013-9-22,75.0,63.8,56.0,60.0,53.2,-99.9,95,73,51,0.00,40.00,8,6,19,0.15
2013-9-23,77.0,65.9,55.0,60.0,56.3,52.0,95,73,52,0.00,40.00,9,5,15,0.00
2013-9-24,66.0,64.3,62.0,64.0,60.8,57.0,98,89,75,0.00,40.00,11,7,18,0.00
2013-9-25,66.0,63.5,62.0,65.0,62.9,61.0,99,98,93,0.00,40.00,8,5,16,0.52
2013-9-26,77.0,67.3,61.0,66.0,61.6,59.0,99,84,57,0.00,40.00,4,3,10,0.01
2013-9-27,79.0,70.8,63.0,62.0,57.5,55.0,90,65,46,0.00,40.00,6,4,11,0.00
2013-9-28,76.0,67.0,60.0,59.0,56.0,54.0,82,69,50,0.00,40.00,8,6,13,0.00
2013-9-29,72.0,63.9,57.0,57.0,51.5,-99.9,83,67,56,0.00,40.00,8,5,17,0.00
2013-9-30,73.0,65.3,58.0,58.0,55.1,53.0,86,71,52,0.00,40.00,6,5,14,0.00
2013-10-1,73.0,72.0,71.0,61.0,60.5,60.0,70,66,63,0.00,40.00,3,3,4,0.00
2013-10-2,81.0,77.0,73.0,66.0,63.4,61.0,75,63,55,0.00,40.00,4,2,7,0.00
2013-10-3,81.0,74.1,67.0,64.0,61.3,59.0,82,66,48,0.00,40.00,6,4,14,0.00
2013-10-4,81.0,75.1,66.0,64.0,62.8,60.0,81,67,55,0.00,40.00,5,4,9,0.00
2013-10-5,83.0,78.0,72.0,67.0,63.7,61.0,75,62,51,0.00,40.00,7,6,13,0.00
2013-10-6,77.0,69.6,65.0,68.0,64.7,62.0,99,85,73,0.00,40.00,11,7,20,0.21
2013-10-7,67.0,59.2,54.0,65.0,52.0,47.0,99,79,52,0.00,40.00,9,6,19,0.87
2013-10-8,74.0,61.2,51.0,58.0,51.4,46.0,84,71,56,0.00,40.00,11,6,24,0.01
2013-10-9,76.0,65.1,56.0,59.0,53.2,49.0,81,66,51,0.00,40.00,8,4,13,0.00
2013-10-10,78.0,70.9,63.0,62.0,57.1,54.0,75,62,53,0.00,40.00,4,3,10,0.00
2013-10-11,78.0,71.5,61.0,56.0,53.2,50.0,74,54,42,0.00,40.00,6,4,12,0.00
2013-10-12,80.0,75.9,70.0,58.0,56.1,54.0,60,51,43,0.00,40.00,5,3,10,0.00
2013-10-13,78.0,71.6,67.0,60.0,53.0,-99.9,75,56,47,0.00,40.00,5,4,16,0.00
2013-10-14,77.0,68.9,61.0,62.0,60.1,58.0,93,75,56,0.00,40.00,9,4,15,0.00
2013-10-15,66.0,62.8,60.0,59.0,57.8,55.0,94,84,72,0.00,40.00,9,6,17,0.00
2013-10-16,68.0,62.0,58.0,61.0,57.8,55.0,93,87,76,0.00,40.00,6,4,10,0.00
2013-10-17,71.0,62.7,56.0,67.0,60.7,52.0,99,93,76,0.00,40.00,7,4,12,0.07
2013-10-18,68.0,57.0,48.0,52.0,47.7,43.0,97,73,48,0.00,40.00,8,5,16,0.04
2013-10-19,69.0,57.1,50.0,55.0,49.3,43.0,88,76,54,0.00,40.00,6,3,11,0.00
2013-10-20,66.0,51.1,41.0,45.0,37.8,-99.9,97,67,31,0.00,40.00,7,4,16,0.00
2013-10-21,69.0,63.4,59.0,48.0,43.8,41.0,55,49,39,0.00,40.00,6,4,10,0.00
2013-10-22,71.0,60.5,54.0,53.0,48.2,43.0,85,64,44,0.00,40.00,5,3,11,0.00
2013-10-23,57.0,50.8,42.0,50.0,39.5,31.0,88,67,43,0.00,40.00,6,4,16,0.00
2013-10-24,61.0,47.1,39.0,42.0,36.2,31.0,81,67,42,0.00,40.00,7,4,13,0.00
2013-10-25,52.0,41.4,32.0,34.0,26.3,23.0,75,56,35,0.00,40.00,9,6,18,0.00
2013-10-26,58.0,51.9,46.0,34.0,29.8,28.0,59,43,35,0.00,40.00,7,6,13,0.00
2013-10-27,59.0,52.6,48.0,51.0,40.7,-99.9,81,67,58,0.00,40.00,6,4,10,0.00
2013-10-28,60.0,55.2,53.0,56.0,50.9,-99.9,97,90,76,0.00,40.00,6,4,10,0.06
2013-10-29,70.0,62.4,54.0,57.0,55.4,52.0,97,79,62,0.00,40.00,6,4,11,0.01
2013-10-30,76.0,65.9,58.0,59.0,55.2,52.0,89,70,46,0.00,40.00,7,5,12,0.00
2013-10-31,69.0,64.7,61.0,63.0,57.5,52.0,97,78,71,0.00,40.00,15,10,31,0.06
2013-11-1,74.0,64.2,56.0,64.0,55.1,42.0,99,75,41,0.00,40.00,15,4,31,0.34
2013-11-2,66.0,57.3,49.0,49.0,40.4,33.0,77,54,36,0.00,40.00,6,4,14,0.00
2013-11-3,60.0,49.2,41.0,41.0,35.3,-99.9,89,63,40,0.00,40.00,7,5,15,0.00
2013-11-4,61.0,54.9,49.0,37.0,35.0,32.0,55,48,39,0.00,40.00,15,11,27,0.00
2013-11-5,63.0,52.9,44.0,38.0,33.9,31.0,64,49,39,0.00,40.00,14,7,22,0.00
2013-11-6,68.0,59.3,52.0,57.0,51.4,31.0,92,76,42,0.00,40.00,14,8,26,0.00
2013-11-7,63.0,53.0,41.0,59.0,43.4,28.0,99,73,40,0.00,40.00,9,6,21,0.32
2013-11-8,56.0,45.4,38.0,29.0,24.6,18.0,62,46,24,0.00,40.00,11,6,21,0.01
2013-11-9,53.0,48.6,46.0,34.0,28.6,-99.9,56,49,42,0.00,40.00,7,5,12,0.00
2013-11-10,67.0,61.3,54.0,41.0,34.9,28.0,49,38,31,0.00,40.00,7,6,16,0.00
2013-11-11,66.0,56.0,41.0,33.0,26.2,22.0,48,33,22,0.00,40.00,7,5,14,0.00
2013-11-12,52.0,39.7,29.0,39.0,23.4,9.0,79,52,36,0.00,40.00,14,9,29,0.00
2013-11-13,46.0,34.4,25.0,17.0,12.5,8.0,61,42,22,0.00,40.00,9,7,21,0.00
2013-11-14,56.0,53.0,48.0,19.0,13.8,11.0,31,21,18,0.00,40.00,6,5,11,0.00
2013-11-15,51.0,48.0,46.0,48.0,40.9,21.0,99,79,37,0.00,40.00,7,4,16,0.12
2013-11-16,58.0,52.3,47.0,56.0,49.7,-99.9,100,94,89,0.00,40.00,12,5,20,0.03
2013-11-17,66.0,60.9,57.0,66.0,59.3,54.0,100,95,87,0.00,40.00,15,10,28,0.44
2013-11-18,66.0,59.4,48.0,66.0,41.6,27.0,100,56,28,0.00,40.00,11,7,22,0.10
2013-11-19,54.0,45.6,39.0,31.0,24.8,21.0,58,45,30,0.00,40.00,11,8,26,0.00
2013-11-20,55.0,50.2,43.0,31.0,28.5,23.0,49,43,36,0.00,40.00,13,10,21,0.00
2013-11-21,58.0,52.0,48.0,49.0,41.8,30.0,90,69,47,0.00,40.00,13,8,22,0.00
2013-11-22,59.0,53.9,50.0,57.0,52.9,49.0,100,96,88,0.00,40.00,7,5,12,0.12
2013-11-23,56.0,45.6,35.0,56.0,37.7,-99.9,100,79,46,0.00,40.00,10,8,26,0.07
2013-11-24,38.0,29.7,22.0,18.0,10.0,0.0,65,46,23,0.00,40.00,11,8,26,0.00
2013-11-25,40.0,34.6,28.0,32.0,13.6,4.0,95,45,25,0.00,40.00,13,8,21,0.28
2013-11-26,42.0,36.7,32.0,42.0,36.5,32.0,100,99,95,0.00,40.00,11,7,23,3.83
2013-11-27,36.0,30.3,22.0,36.0,22.7,13.0,99,75,53,0.00,40.00,13,9,25,0.03
2013-11-28,45.0,29.3,20.0,20.0,14.8,12.0,72,57,29,0.00,40.00,8,5,14,0.00
2013-11-29,52.0,47.7,43.0,23.0,21.7,20.0,44,36,29,0.00,40.00,6,5,11,0.00
2013-11-30,53.0,44.1,38.0,25.0,20.5,-99.9,53,41,31,0.00,40.00,9,7,16,0.00
2013-12-1,54.0,45.7,38.0,35.0,29.9,22.0,63,54,45,0.00,40.00,7,5,11,0.00
2013-12-2,48.0,45.1,42.0,48.0,42.6,35.0,100,92,62,0.00,40.00,5,4,7,0.20
2013-12-3,54.0,50.7,48.0,54.0,50.7,48.0,100,100,100,0.00,40.00,7,6,12,0.09
2013-12-4,70.0,59.9,53.0,64.0,57.9,53.0,100,94,68,0.00,40.00,10,6,17,0.01
2013-12-5,69.0,64.9,63.0,67.0,64.5,62.0,100,99,92,0.00,40.00,8,6,19,0.17
2013-12-6,71.0,61.9,38.0,67.0,60.2,37.0,100,95,77,0.00,40.00,12,8,22,0.86
2013-12-7,38.0,35.8,35.0,37.0,32.7,-99.9,99,92,87,0.00,40.00,10,8,23,0.46
2013-12-8,45.0,40.9,34.0,45.0,40.9,34.0,100,100,97,0.00,40.00,11,6,17,0.86
2013-12-9,50.0,45.0,42.0,50.0,44.7,42.0,100,99,95,0.00,40.00,10,4,16,0.87
2013-12-10,43.0,37.4,31.0,42.0,31.6,23.0,100,81,54,0.00,40.00,8,6,18,0.58
2013-12-11,51.0,37.7,29.0,27.0,23.4,21.0,83,59,33,0.00,40.00,7,4,14,0.01
2013-12-12,40.0,32.6,25.0,23.0,18.4,9.0,82,59,29,0.00,40.00,9,6,16,0.00
2013-12-13,47.0,44.1,41.0,23.0,19.8,14.0,48,38,32,0.00,40.00,9,4,17,0.00
2013-12-14,50.0,46.0,43.0,50.0,38.2,-99.9,100,81,35,0.00,40.00,15,7,26,0.86
2013-12-15,46.0,34.1,30.0,46.0,31.4,26.0,100,90,83,0.00,40.00,9,6,14,0.02
2013-12-16,53.0,37.2,27.0,34.0,29.1,26.0,95,75,45,0.00,40.00,7,4,12,0.01
2013-12-17,61.0,54.5,45.0,36.0,33.8,31.0,58,46,35,0.00,40.00,10,6,18,0.00
2013-12-18,50.0,39.8,31.0,23.0,19.2,13.0,66,47,23,0.00,40.00,7,5,14,0.00
2013-12-19,57.0,54.2,50.0,26.0,23.3,22.0,35,30,26,0.00,40.00,11,6,16,0.00
2013-12-20,60.0,53.6,45.0,51.0,37.3,23.0,81,55,34,0.00,40.00,10,8,16,0.00
2013-12-21,67.0,60.5,56.0,65.0,56.5,-99.9,100,90,81,0.00,40.00,17,11,30,0.24
2013-12-22,67.0,56.7,53.0,66.0,56.4,52.0,100,98,93,0.00,40.00,15,7,31,2.13
2013-12-23,53.0,41.6,30.0,53.0,38.4,25.0,100,89,76,0.00,40.00,9,6,20,0.25
2013-12-24,35.0,28.6,25.0,25.0,19.7,12.0,90,71,47,0.00,40.00,9,6,16,0.02
2013-12-25,45.0,32.6,22.0,21.0,16.0,12.0,66,51,38,0.00,40.00,9,4,15,0.00
2013-12-26,49.0,41.9,33.0,27.0,23.1,17.0,54,47,38,0.00,40.00,2,0,14,0.00
2013-12-27,51.0,48.8,46.0,26.0,23.6,21.0,40,37,34,0.00,40.00,3,1,10,0.00
2013-12-28,41.0,36.8,36.0,36.0,29.2,-99.9,98,81,55,0.00,40.00,8,4,14,1.17
2013-12-29,48.0,41.8,36.0,44.0,40.2,36.0,100,94,83,0.00,40.00,7,3,14,1.68
2013-12-30,42.0,38.5,34.0,39.0,35.6,31.0,96,89,82,0.00,40.00,5,3,12,0.01
2013-12-31,40.0,33.9,29.0,32.0,26.4,20.0,97,76,50,0.00,40.00,7,2,15,0.00
2014-1-1,48.0,40.2,32.0,31.0,26.9,20.0,66,59,50,0.00,40.00,7,2,14,0.00
2014-1-2,45.0,36.7,20.0,45.0,32.9,13.0,100,87,66,0.00,40.00,13,8,26,0.30